Time;durP1;ratioP1;P1;durP2;ratioP2;P2;SDS_P1;SDS_P2;PMS_P1;PMS_P2;Temp;Humidity;BMP_temperature;BMP_pressure;BME280_temperature;BME280_humidity;BME280_pressure;Samples;Min_cycle;Max_cycle;Signal;HPM_P1;HPM_P2
2023/09/15 00:02:05;;;;;;;3.85;2.40;;;;;;;;;;10354208;28;20037;-56
2023/09/15 00:07:05;;;;;;;3.55;2.20;;;;;;;;;;10350239;28;20109;-58
2023/09/15 00:12:07;;;;;;;4.20;2.25;;;;;;;;;;10354634;28;20470;-56
2023/09/15 00:17:08;;;;;;;4.03;2.33;;;;;;;;;;10364659;28;20056;-56
2023/09/15 00:22:08;;;;;;;6.18;2.47;;;;;;;;;;10348753;28;20401;-54
2023/09/15 00:27:09;;;;;;;7.32;2.50;;;;;;;;;;10358122;28;20484;-56
2023/09/15 00:32:10;;;;;;;8.63;2.75;;;;;;;;;;10367298;28;20037;-56
2023/09/15 00:37:11;;;;;;;3.08;2.20;;;;;;;;;;10365480;28;20029;-58
2023/09/15 00:42:12;;;;;;;4.95;2.45;;;;;;;;;;10349180;28;20049;-58
2023/09/15 00:47:13;;;;;;;4.38;2.67;;;;;;;;;;10367005;28;20045;-57
2023/09/15 00:52:15;;;;;;;4.03;2.30;;;;;;;;;;10359218;28;20041;-57
2023/09/15 00:57:16;;;;;;;4.88;2.78;;;;;;;;;;10355352;28;20022;-58
2023/09/15 01:02:17;;;;;;;7.20;2.70;;;;;;;;;;10363609;28;20018;-57
2023/09/15 01:07:18;;;;;;;10.88;3.03;;;;;;;;;;10365733;28;20029;-55
2023/09/15 01:12:18;;;;;;;4.82;2.75;;;;;;;;;;10353051;28;20057;-57
2023/09/15 01:17:26;;;;;;;5.80;3.00;;;;;;;;;;10354816;28;20034;-58
2023/09/15 01:22:45;;;;;;;8.95;3.13;;;;;;;;;;10365802;28;20512;-58
2023/09/15 01:28:29;;;;;;;8.77;3.40;;;;;;;;;;10356493;28;20573;-57
2023/09/15 01:33:30;;;;;;;9.10;3.33;;;;;;;;;;10356894;28;20177;-57
2023/09/15 01:38:33;;;;;;;5.65;3.33;;;;;;;;;;10350913;28;20397;-54
2023/09/15 01:43:34;;;;;;;7.45;3.25;;;;;;;;;;10355009;28;20060;-57
2023/09/15 01:48:36;;;;;;;4.30;3.20;;;;;;;;;;10352475;28;20041;-55
2023/09/15 01:53:37;;;;;;;8.90;3.42;;;;;;;;;;10337492;28;20044;-58
2023/09/15 01:58:37;;;;;;;12.85;3.08;;;;;;;;;;10352524;28;20125;-58
2023/09/15 02:03:38;;;;;;;3.92;2.83;;;;;;;;;;10354081;28;20034;-58
2023/09/15 02:08:39;;;;;;;5.40;2.97;;;;;;;;;;10349823;28;20107;-58
2023/09/15 02:13:41;;;;;;;6.03;3.10;;;;;;;;;;10339311;28;20577;-59
2023/09/15 02:18:41;;;;;;;7.28;2.92;;;;;;;;;;10362231;28;20076;-58
2023/09/15 02:23:42;;;;;;;6.75;3.47;;;;;;;;;;10352164;28;20428;-58
2023/09/15 02:28:42;;;;;;;4.03;2.83;;;;;;;;;;10363827;28;20385;-58
2023/09/15 02:33:43;;;;;;;7.43;3.75;;;;;;;;;;10351131;28;20022;-58
2023/09/15 02:38:43;;;;;;;5.07;3.15;;;;;;;;;;10362327;28;20033;-58
2023/09/15 02:43:47;;;;;;;5.18;3.20;;;;;;;;;;10363078;28;20733;-58
2023/09/15 02:48:47;;;;;;;9.00;4.05;;;;;;;;;;10365546;28;20051;-58
2023/09/15 02:53:48;;;;;;;6.45;3.00;;;;;;;;;;10363029;28;20046;-58
2023/09/15 02:58:49;;;;;;;4.75;3.10;;;;;;;;;;10371066;28;20025;-58
2023/09/15 03:03:49;;;;;;;7.28;3.53;;;;;;;;;;10350975;28;20034;-58
2023/09/15 03:08:50;;;;;;;6.90;3.42;;;;;;;;;;10358040;28;20520;-58
2023/09/15 03:13:51;;;;;;;4.45;2.80;;;;;;;;;;10359613;28;20033;-58
2023/09/15 03:18:51;;;;;;;6.35;2.63;;;;;;;;;;10370369;28;20022;-56
2023/09/15 03:23:52;;;;;;;6.88;3.10;;;;;;;;;;10370027;28;20026;-57
2023/09/15 03:28:52;;;;;;;6.75;3.00;;;;;;;;;;10368612;28;20124;-57
2023/09/15 03:33:53;;;;;;;4.65;3.00;;;;;;;;;;10369032;28;20390;-58
2023/09/15 03:38:53;;;;;;;4.85;2.72;;;;;;;;;;10369021;28;20416;-58
2023/09/15 03:43:55;;;;;;;6.53;2.92;;;;;;;;;;10368127;28;20372;-57
2023/09/15 03:48:56;;;;;;;4.38;2.95;;;;;;;;;;10368502;28;20222;-58
2023/09/15 03:53:56;;;;;;;4.35;2.70;;;;;;;;;;10355850;28;21702;-58
2023/09/15 03:58:58;;;;;;;12.98;2.88;;;;;;;;;;10353726;28;20045;-58
2023/09/15 04:03:59;;;;;;;11.90;3.40;;;;;;;;;;10359367;28;20044;-58
2023/09/15 04:09:00;;;;;;;5.55;2.63;;;;;;;;;;10368638;28;20034;-58
2023/09/15 04:14:00;;;;;;;4.78;2.80;;;;;;;;;;10353065;28;20482;-58
2023/09/15 04:19:01;;;;;;;7.85;3.22;;;;;;;;;;10366699;28;20033;-59
2023/09/15 04:24:02;;;;;;;5.18;2.60;;;;;;;;;;10368013;28;20054;-58
2023/09/15 04:29:04;;;;;;;5.00;2.63;;;;;;;;;;10366061;28;20030;-56
2023/09/15 04:34:04;;;;;;;4.45;2.50;;;;;;;;;;10367019;28;20028;-57
2023/09/15 04:39:05;;;;;;;5.05;2.55;;;;;;;;;;10367188;28;20025;-58
2023/09/15 04:44:05;;;;;;;5.35;2.50;;;;;;;;;;10355057;28;20137;-58
2023/09/15 04:49:06;;;;;;;6.97;2.55;;;;;;;;;;10366064;28;20466;-58
2023/09/15 04:54:06;;;;;;;5.93;2.33;;;;;;;;;;10356996;28;20044;-58
2023/09/15 04:59:15;;;;;;;7.18;2.22;;;;;;;;;;10362182;28;20042;-58
2023/09/15 05:04:19;;;;;;;8.77;2.20;;;;;;;;;;10362215;28;20444;-57
2023/09/15 05:09:20;;;;;;;3.17;2.10;;;;;;;;;;10362147;28;20038;-56
2023/09/15 05:14:22;;;;;;;9.05;2.40;;;;;;;;;;10350614;28;20109;-57
2023/09/15 05:19:23;;;;;;;13.52;2.20;;;;;;;;;;10357904;28;20072;-57
2023/09/15 05:24:24;;;;;;;3.90;2.42;;;;;;;;;;10363590;28;20026;-57
2023/09/15 05:29:25;;;;;;;4.10;2.30;;;;;;;;;;10356796;28;20064;-58
2023/09/15 05:34:25;;;;;;;4.93;2.38;;;;;;;;;;10359619;28;20608;-58
2023/09/15 05:39:26;;;;;;;7.10;1.70;;;;;;;;;;10352156;28;20030;-59
2023/09/15 05:44:27;;;;;;;4.72;2.30;;;;;;;;;;10355725;28;20058;-48
2023/09/15 05:49:27;;;;;;;2.60;2.15;;;;;;;;;;10338847;28;20041;-57
2023/09/15 05:54:29;;;;;;;7.07;2.40;;;;;;;;;;10347810;28;20030;-57
2023/09/15 05:59:30;;;;;;;2.03;1.80;;;;;;;;;;10342612;28;20485;-56
2023/09/15 06:04:37;;;;;;;5.95;2.33;;;;;;;;;;10347946;28;20293;-56
2023/09/15 06:09:38;;;;;;;8.27;2.90;;;;;;;;;;10348661;28;20120;-54
2023/09/15 06:14:40;;;;;;;18.70;3.33;;;;;;;;;;10343078;28;20026;-55
2023/09/15 06:19:41;;;;;;;11.57;2.53;;;;;;;;;;10348814;28;20041;-49
2023/09/15 06:24:42;;;;;;;5.32;2.78;;;;;;;;;;10353860;28;20061;-49
2023/09/15 06:29:43;;;;;;;9.40;2.38;;;;;;;;;;10363988;28;20036;-48
2023/09/15 06:34:45;;;;;;;6.30;2.47;;;;;;;;;;10350594;28;20080;-48
2023/09/15 06:39:46;;;;;;;6.13;2.42;;;;;;;;;;10350232;28;20025;-50
2023/09/15 06:44:47;;;;;;;7.47;2.65;;;;;;;;;;10363484;28;20049;-50
2023/09/15 06:49:49;;;;;;;8.35;2.72;;;;;;;;;;10362578;28;20038;-48
2023/09/15 06:54:50;;;;;;;10.88;2.97;;;;;;;;;;10362757;28;20026;-48
2023/09/15 06:59:52;;;;;;;5.68;2.40;;;;;;;;;;10352472;28;20034;-49
2023/09/15 07:04:53;;;;;;;5.95;2.40;;;;;;;;;;10358423;28;20022;-49
2023/09/15 07:09:54;;;;;;;4.95;2.42;;;;;;;;;;10361791;28;20410;-50
2023/09/15 07:14:55;;;;;;;3.30;2.40;;;;;;;;;;10349940;28;20041;-50
2023/09/15 07:19:55;;;;;;;5.80;2.33;;;;;;;;;;10342543;28;20045;-51
2023/09/15 07:24:56;;;;;;;5.78;2.13;;;;;;;;;;10360906;28;20956;-50
2023/09/15 07:29:56;;;;;;;4.07;2.00;;;;;;;;;;10352757;28;20101;-49
2023/09/15 07:34:57;;;;;;;4.43;2.47;;;;;;;;;;10364084;28;20516;-57
2023/09/15 07:39:57;;;;;;;3.88;2.45;;;;;;;;;;10364130;28;20531;-52
2023/09/15 07:44:58;;;;;;;4.28;2.33;;;;;;;;;;10358432;28;20378;-49
2023/09/15 07:49:59;;;;;;;3.00;2.20;;;;;;;;;;10344510;28;20407;-62
2023/09/15 07:54:59;;;;;;;5.80;2.53;;;;;;;;;;10356937;28;20054;-49
2023/09/15 08:00:00;;;;;;;4.95;2.10;;;;;;;;;;10367120;28;20057;-51
2023/09/15 08:05:01;;;;;;;3.13;2.25;;;;;;;;;;10369271;28;20022;-61
2023/09/15 08:10:01;;;;;;;3.10;2.20;;;;;;;;;;10367970;28;20022;-48
2023/09/15 08:15:02;;;;;;;7.10;2.20;;;;;;;;;;10359123;28;20048;-49
2023/09/15 08:20:04;;;;;;;3.17;1.90;;;;;;;;;;10361195;28;20030;-49
2023/09/15 08:25:06;;;;;;;4.00;2.28;;;;;;;;;;10355715;28;20022;-53
2023/09/15 08:30:08;;;;;;;3.58;2.00;;;;;;;;;;10360823;28;20397;-59
2023/09/15 08:35:09;;;;;;;7.72;2.33;;;;;;;;;;10366783;28;20486;-53
2023/09/15 08:40:11;;;;;;;3.40;2.08;;;;;;;;;;10366093;28;20084;-54
2023/09/15 08:45:11;;;;;;;4.75;2.58;;;;;;;;;;10356626;28;20041;-50
2023/09/15 08:50:13;;;;;;;5.78;2.22;;;;;;;;;;10366102;28;20382;-50
2023/09/15 08:55:14;;;;;;;3.00;2.10;;;;;;;;;;10353947;28;20033;-60
2023/09/15 09:00:15;;;;;;;2.92;1.92;;;;;;;;;;10367295;28;20021;-52
2023/09/15 09:05:16;;;;;;;4.82;2.00;;;;;;;;;;10365457;28;20193;-48
2023/09/15 09:10:17;;;;;;;5.10;2.40;;;;;;;;;;10364511;28;20508;-48
2023/09/15 09:15:21;;;;;;;2.45;2.00;;;;;;;;;;10364818;28;20594;-49
2023/09/15 09:20:28;;;;;;;5.78;2.42;;;;;;;;;;10364651;28;20048;-59
2023/09/15 09:25:33;;;;;;;2.57;2.03;;;;;;;;;;10359820;28;20038;-53
2023/09/15 09:30:34;;;;;;;3.65;2.10;;;;;;;;;;10345628;28;20030;-49
2023/09/15 09:35:35;;;;;;;6.93;2.20;;;;;;;;;;10363461;28;20088;-51
2023/09/15 09:40:36;;;;;;;2.00;1.80;;;;;;;;;;10364087;28;20079;-50
2023/09/15 09:45:37;;;;;;;3.83;2.30;;;;;;;;;;10364338;28;20042;-51
2023/09/15 09:50:38;;;;;;;2.63;2.20;;;;;;;;;;10363815;28;20025;-51
2023/09/15 09:55:44;;;;;;;2.22;2.03;;;;;;;;;;10364097;28;20049;-49
2023/09/15 10:00:50;;;;;;;3.00;1.95;;;;;;;;;;10363447;28;20114;-50
2023/09/15 10:05:52;;;;;;;3.42;2.17;;;;;;;;;;10362921;28;20034;-55
2023/09/15 10:10:53;;;;;;;3.10;2.10;;;;;;;;;;10364291;28;20037;-50
2023/09/15 10:15:55;;;;;;;2.40;2.13;;;;;;;;;;10357552;28;20022;-48
2023/09/15 10:20:57;;;;;;;3.88;2.17;;;;;;;;;;10362833;28;20025;-50
2023/09/15 10:25:57;;;;;;;3.25;2.15;;;;;;;;;;10363831;28;20529;-49
2023/09/15 10:30:58;;;;;;;3.70;2.10;;;;;;;;;;10352191;28;20041;-57
2023/09/15 10:36:04;;;;;;;4.45;2.10;;;;;;;;;;10362900;28;20140;-49
2023/09/15 10:41:09;;;;;;;5.40;2.38;;;;;;;;;;10356206;28;20058;-50
2023/09/15 10:46:09;;;;;;;2.85;1.90;;;;;;;;;;10362866;28;20073;-50
2023/09/15 10:51:11;;;;;;;3.22;2.28;;;;;;;;;;10362186;28;20500;-49
2023/09/15 10:56:14;;;;;;;2.90;2.05;;;;;;;;;;10362048;28;20517;-49
2023/09/15 11:01:16;;;;;;;2.38;2.10;;;;;;;;;;10362191;28;20018;-49
2023/09/15 11:06:20;;;;;;;4.47;2.50;;;;;;;;;;10362937;28;20026;-49
2023/09/15 11:11:20;;;;;;;5.30;2.08;;;;;;;;;;10364990;28;20454;-49
2023/09/15 11:16:23;;;;;;;3.50;1.95;;;;;;;;;;10363959;28;20032;-59
2023/09/15 11:21:23;;;;;;;3.88;2.35;;;;;;;;;;10368753;28;20026;-49
2023/09/15 11:26:25;;;;;;;2.65;2.10;;;;;;;;;;10359105;28;20037;-50
2023/09/15 11:31:26;;;;;;;3.97;2.42;;;;;;;;;;10354924;28;20033;-53
2023/09/15 11:36:27;;;;;;;2.58;2.05;;;;;;;;;;10370418;28;20034;-49
2023/09/15 11:41:32;;;;;;;2.45;2.25;;;;;;;;;;10361352;28;20070;-51
2023/09/15 11:46:36;;;;;;;2.70;2.30;;;;;;;;;;10368325;28;20046;-49
2023/09/15 11:51:38;;;;;;;3.25;2.30;;;;;;;;;;10361288;28;20034;-50
2023/09/15 11:56:39;;;;;;;2.60;2.40;;;;;;;;;;10356055;28;20030;-56
2023/09/15 12:01:40;;;;;;;4.22;2.40;;;;;;;;;;10367657;28;20037;-60
2023/09/15 12:06:42;;;;;;;12.55;2.30;;;;;;;;;;10367823;28;20091;-48
2023/09/15 12:11:47;;;;;;;4.10;2.30;;;;;;;;;;10350776;28;20093;-49
2023/09/15 12:16:47;;;;;;;3.75;2.30;;;;;;;;;;10360656;28;20509;-50
2023/09/15 12:21:52;;;;;;;2.63;2.20;;;;;;;;;;10362218;28;20038;-53
2023/09/15 12:26:54;;;;;;;4.63;2.58;;;;;;;;;;10348498;28;20030;-49
2023/09/15 12:31:56;;;;;;;3.70;2.33;;;;;;;;;;10355910;28;20027;-63
2023/09/15 12:36:57;;;;;;;7.03;2.50;;;;;;;;;;10355907;28;20042;-64
2023/09/15 12:41:59;;;;;;;8.18;2.75;;;;;;;;;;10366606;28;20089;-66
2023/09/15 12:47:03;;;;;;;8.50;3.05;;;;;;;;;;10366087;28;20038;-63
2023/09/15 12:52:04;;;;;;;6.03;3.13;;;;;;;;;;10353233;28;20462;-57
2023/09/15 12:57:05;;;;;;;7.28;2.92;;;;;;;;;;10368562;28;20030;-57
2023/09/15 13:02:05;;;;;;;5.13;2.95;;;;;;;;;;10365992;28;20026;-63
2023/09/15 13:07:06;;;;;;;7.47;2.92;;;;;;;;;;10365576;28;20026;-62
2023/09/15 13:12:07;;;;;;;11.27;3.38;;;;;;;;;;10359225;28;20030;-56
2023/09/15 13:17:09;;;;;;;9.10;3.15;;;;;;;;;;10365206;28;20035;-54
2023/09/15 13:22:09;;;;;;;9.23;3.42;;;;;;;;;;10366322;28;20034;-62
2023/09/15 13:27:10;;;;;;;4.10;2.72;;;;;;;;;;10365184;28;20403;-54
2023/09/15 13:32:11;;;;;;;7.68;3.20;;;;;;;;;;10363602;28;20370;-66
2023/09/15 13:37:11;;;;;;;7.65;3.03;;;;;;;;;;10365154;28;20401;-55
2023/09/15 13:42:12;;;;;;;7.63;2.72;;;;;;;;;;10364162;28;20413;-59
2023/09/15 13:47:13;;;;;;;4.25;2.67;;;;;;;;;;10364100;28;20038;-55
2023/09/15 13:52:13;;;;;;;12.25;2.70;;;;;;;;;;10357842;28;20388;-66
2023/09/15 13:57:14;;;;;;;5.25;2.78;;;;;;;;;;10363180;28;20486;-66
2023/09/15 14:02:15;;;;;;;6.20;2.45;;;;;;;;;;10352235;28;20528;-65
2023/09/15 14:07:16;;;;;;;7.47;2.63;;;;;;;;;;10364331;28;20041;-49
2023/09/15 14:12:17;;;;;;;3.83;2.38;;;;;;;;;;10353160;28;20493;-49
2023/09/15 14:17:17;;;;;;;3.63;2.45;;;;;;;;;;10362496;28;20173;-51
2023/09/15 14:22:18;;;;;;;3.22;2.40;;;;;;;;;;10362962;28;20030;-63
2023/09/15 14:27:19;;;;;;;5.70;2.80;;;;;;;;;;10363463;28;20026;-51
2023/09/15 14:32:19;;;;;;;4.47;2.30;;;;;;;;;;10363577;28;20042;-52
2023/09/15 14:37:33;;;;;;;4.72;2.78;;;;;;;;;;10362777;28;20045;-49
2023/09/15 14:42:33;;;;;;;4.80;2.60;;;;;;;;;;10359948;28;20399;-51
2023/09/15 14:47:34;;;;;;;3.40;2.20;;;;;;;;;;10371622;28;20076;-64
2023/09/15 14:52:35;;;;;;;3.15;2.50;;;;;;;;;;10371626;28;20030;-49
2023/09/15 14:57:35;;;;;;;4.28;2.50;;;;;;;;;;10344673;28;20028;-48
2023/09/15 15:02:36;;;;;;;6.57;2.22;;;;;;;;;;10336825;28;20117;-50
2023/09/15 15:07:37;;;;;;;5.40;2.72;;;;;;;;;;10343708;28;20029;-50
2023/09/15 15:12:38;;;;;;;5.82;3.05;;;;;;;;;;10343561;28;20033;-50
2023/09/15 15:17:39;;;;;;;10.55;2.63;;;;;;;;;;10352751;28;20033;-52
2023/09/15 15:22:39;;;;;;;6.03;2.63;;;;;;;;;;10340256;28;20031;-51
2023/09/15 15:27:42;;;;;;;16.60;2.72;;;;;;;;;;10346716;28;20331;-56
2023/09/15 15:32:43;;;;;;;11.73;2.97;;;;;;;;;;10338725;28;20349;-50
2023/09/15 15:37:44;;;;;;;8.48;2.72;;;;;;;;;;10340411;28;20269;-50
2023/09/15 15:42:44;;;;;;;6.88;2.80;;;;;;;;;;10334162;28;20108;-49
2023/09/15 15:47:46;;;;;;;5.35;2.75;;;;;;;;;;10335359;28;20062;-50
2023/09/15 15:52:46;;;;;;;20.80;3.30;;;;;;;;;;10354099;28;20041;-47
2023/09/15 15:57:47;;;;;;;16.52;3.47;;;;;;;;;;10339688;28;20031;-47
2023/09/15 16:02:48;;;;;;;23.30;3.85;;;;;;;;;;10348292;28;20076;-47
2023/09/15 16:07:48;;;;;;;29.27;5.45;;;;;;;;;;10350489;28;20026;-46
2023/09/15 16:12:49;;;;;;;21.27;4.75;;;;;;;;;;10333014;28;20121;-47
2023/09/15 16:17:53;;;;;;;24.92;4.43;;;;;;;;;;10368235;28;20241;-46
2023/09/15 16:22:54;;;;;;;13.52;3.38;;;;;;;;;;10367217;28;20025;-47
2023/09/15 16:27:54;;;;;;;12.50;3.45;;;;;;;;;;10369070;28;20026;-46
2023/09/15 16:32:55;;;;;;;13.68;3.90;;;;;;;;;;10349408;28;20040;-47
2023/09/15 16:37:55;;;;;;;13.40;4.05;;;;;;;;;;10346109;28;20093;-46
2023/09/15 16:42:56;;;;;;;17.85;3.50;;;;;;;;;;10356186;28;20528;-46
2023/09/15 16:47:57;;;;;;;16.38;3.95;;;;;;;;;;10357255;28;20077;-51
2023/09/15 16:52:57;;;;;;;14.27;3.70;;;;;;;;;;10347941;28;20473;-47
2023/09/15 16:57:58;;;;;;;9.50;2.83;;;;;;;;;;10356435;28;20029;-46
2023/09/15 17:02:59;;;;;;;8.77;3.70;;;;;;;;;;10363484;28;20018;-47
2023/09/15 17:08:00;;;;;;;10.60;3.88;;;;;;;;;;10349610;28;20373;-46
2023/09/15 17:13:02;;;;;;;11.60;3.17;;;;;;;;;;10340444;28;20115;-46
2023/09/15 17:18:03;;;;;;;7.65;3.22;;;;;;;;;;10350003;28;20028;-46
2023/09/15 17:23:03;;;;;;;9.43;3.33;;;;;;;;;;10346089;28;20026;-47
2023/09/15 17:28:04;;;;;;;10.00;3.50;;;;;;;;;;10355814;28;20394;-47
2023/09/15 17:33:04;;;;;;;10.07;2.80;;;;;;;;;;10361228;28;20033;-47
2023/09/15 17:38:06;;;;;;;4.53;2.58;;;;;;;;;;10353915;28;20109;-47
2023/09/15 17:43:07;;;;;;;7.55;3.20;;;;;;;;;;10346728;28;20022;-60
2023/09/15 17:48:10;;;;;;;13.20;2.65;;;;;;;;;;10358676;28;20053;-47
2023/09/15 17:53:10;;;;;;;7.85;3.40;;;;;;;;;;10357215;28;20034;-47
2023/09/15 17:58:11;;;;;;;8.13;3.58;;;;;;;;;;10349972;28;20034;-47
2023/09/15 18:03:11;;;;;;;7.97;3.22;;;;;;;;;;10344369;28;20077;-47
2023/09/15 18:08:12;;;;;;;5.55;2.97;;;;;;;;;;10343190;28;20029;-48
2023/09/15 18:13:12;;;;;;;7.97;3.08;;;;;;;;;;10334953;28;20026;-47
2023/09/15 18:18:13;;;;;;;6.07;2.90;;;;;;;;;;10337359;28;20030;-47
2023/09/15 18:23:14;;;;;;;8.07;3.13;;;;;;;;;;10338098;28;20027;-51
2023/09/15 18:28:14;;;;;;;9.20;3.42;;;;;;;;;;10337133;28;20140;-47
2023/09/15 18:33:15;;;;;;;7.13;2.75;;;;;;;;;;10331260;28;20034;-47
2023/09/15 18:38:16;;;;;;;8.65;3.55;;;;;;;;;;10330340;28;20053;-47
2023/09/15 18:43:16;;;;;;;7.47;3.28;;;;;;;;;;10329052;28;20026;-47
2023/09/15 18:48:17;;;;;;;10.27;3.25;;;;;;;;;;10339918;28;20051;-46
2023/09/15 18:53:18;;;;;;;7.50;3.17;;;;;;;;;;10335830;28;20034;-47
2023/09/15 18:58:19;;;;;;;10.05;3.30;;;;;;;;;;10330059;28;20556;-47
2023/09/15 19:03:19;;;;;;;9.20;3.00;;;;;;;;;;10344484;28;20035;-47
2023/09/15 19:08:20;;;;;;;7.15;3.13;;;;;;;;;;10328415;28;20030;-49
2023/09/15 19:13:20;;;;;;;10.50;3.00;;;;;;;;;;10331673;28;20695;-47
2023/09/15 19:18:23;;;;;;;8.00;3.35;;;;;;;;;;10344803;28;20415;-48
2023/09/15 19:23:24;;;;;;;7.60;3.28;;;;;;;;;;10339797;28;20088;-46
2023/09/15 19:28:26;;;;;;;9.07;2.90;;;;;;;;;;10322349;28;20041;-48
2023/09/15 19:33:26;;;;;;;5.95;2.95;;;;;;;;;;10341535;28;20038;-48
2023/09/15 19:38:27;;;;;;;5.20;3.08;;;;;;;;;;10342463;28;20385;-53
2023/09/15 19:43:28;;;;;;;5.68;3.10;;;;;;;;;;10341620;28;20021;-46
2023/09/15 19:48:29;;;;;;;5.45;3.45;;;;;;;;;;10345999;28;20357;-47
2023/09/15 19:53:30;;;;;;;8.10;3.38;;;;;;;;;;10354490;28;20422;-46
2023/09/15 19:58:33;;;;;;;7.82;3.17;;;;;;;;;;10356432;28;20026;-46
2023/09/15 20:03:34;;;;;;;6.97;3.22;;;;;;;;;;10355150;28;20026;-47
2023/09/15 20:08:34;;;;;;;4.95;2.95;;;;;;;;;;10356248;28;20018;-47
2023/09/15 20:13:35;;;;;;;7.13;3.10;;;;;;;;;;10344663;28;20031;-46
2023/09/15 20:18:35;;;;;;;5.80;3.30;;;;;;;;;;10342168;28;20027;-46
2023/09/15 20:23:39;;;;;;;5.47;3.38;;;;;;;;;;10339428;28;20014;-46
2023/09/15 20:28:40;;;;;;;5.35;3.13;;;;;;;;;;10331386;28;20034;-47
2023/09/15 20:33:41;;;;;;;4.13;3.10;;;;;;;;;;10336418;28;20041;-47
2023/09/15 20:38:42;;;;;;;25.15;3.83;;;;;;;;;;10343113;28;20058;-47
2023/09/15 20:43:43;;;;;;;9.38;4.18;;;;;;;;;;10322867;28;20034;-55
2023/09/15 20:48:44;;;;;;;5.35;4.03;;;;;;;;;;10339384;28;20556;-47
2023/09/15 20:53:44;;;;;;;9.40;4.97;;;;;;;;;;10333403;28;20045;-47
2023/09/15 20:58:45;;;;;;;11.32;5.45;;;;;;;;;;10338285;28;20477;-49
2023/09/15 21:03:45;;;;;;;10.57;5.10;;;;;;;;;;10332325;28;20197;-48
2023/09/15 21:08:46;;;;;;;9.40;5.63;;;;;;;;;;10337061;28;20025;-53
2023/09/15 21:13:47;;;;;;;6.40;5.72;;;;;;;;;;10334272;28;20030;-47
2023/09/15 21:18:47;;;;;;;9.10;5.30;;;;;;;;;;10345033;28;20030;-46
2023/09/15 21:23:48;;;;;;;7.25;6.47;;;;;;;;;;10356930;28;20425;-47
2023/09/15 21:28:49;;;;;;;8.93;6.13;;;;;;;;;;10365475;28;20032;-46
2023/09/15 21:33:49;;;;;;;7.88;5.72;;;;;;;;;;10356401;28;20041;-47
2023/09/15 21:38:50;;;;;;;9.60;5.93;;;;;;;;;;10364550;28;20387;-46
2023/09/15 21:43:50;;;;;;;7.60;5.88;;;;;;;;;;10352289;28;20037;-46
2023/09/15 21:48:51;;;;;;;11.90;5.75;;;;;;;;;;10340356;28;20434;-48
2023/09/15 21:53:52;;;;;;;7.38;5.53;;;;;;;;;;10355750;28;20375;-48
2023/09/15 21:58:52;;;;;;;7.07;5.63;;;;;;;;;;10361553;28;20211;-46
2023/09/15 22:03:53;;;;;;;6.25;5.60;;;;;;;;;;10347704;28;20036;-46
2023/09/15 22:08:56;;;;;;;7.63;5.43;;;;;;;;;;10361056;28;20037;-48
2023/09/15 22:13:56;;;;;;;7.78;5.47;;;;;;;;;;10353048;28;20032;-50
2023/09/15 22:18:57;;;;;;;7.03;5.78;;;;;;;;;;10361153;28;20033;-47
2023/09/15 22:23:58;;;;;;;8.68;5.63;;;;;;;;;;10343904;28;20092;-47
2023/09/15 22:28:59;;;;;;;8.23;5.15;;;;;;;;;;10354569;28;20026;-49
2023/09/15 22:33:59;;;;;;;8.73;4.95;;;;;;;;;;10361066;28;20045;-48
2023/09/15 22:39:00;;;;;;;6.72;5.28;;;;;;;;;;10354776;28;20497;-47
2023/09/15 22:44:03;;;;;;;7.47;4.88;;;;;;;;;;10355705;28;20482;-47
2023/09/15 22:49:10;;;;;;;5.95;4.38;;;;;;;;;;10353899;28;20046;-47
2023/09/15 22:54:13;;;;;;;7.60;4.68;;;;;;;;;;10345858;28;20110;-48
2023/09/15 22:59:13;;;;;;;9.98;4.65;;;;;;;;;;10355545;28;20022;-47
2023/09/15 23:04:14;;;;;;;11.50;4.80;;;;;;;;;;10361540;28;20470;-49
2023/09/15 23:09:15;;;;;;;7.57;5.05;;;;;;;;;;10358646;28;20072;-50
2023/09/15 23:14:15;;;;;;;5.72;4.80;;;;;;;;;;10360116;28;20037;-48
2023/09/15 23:19:16;;;;;;;15.10;4.78;;;;;;;;;;10369771;28;20030;-47
2023/09/15 23:24:20;;;;;;;15.70;5.45;;;;;;;;;;10369679;28;20025;-48
2023/09/15 23:29:21;;;;;;;9.13;4.80;;;;;;;;;;10368969;28;20021;-47
2023/09/15 23:34:25;;;;;;;8.07;4.72;;;;;;;;;;10369590;28;20030;-48
2023/09/15 23:39:26;;;;;;;6.90;4.45;;;;;;;;;;10369369;28;20057;-48
2023/09/15 23:44:26;;;;;;;9.90;4.82;;;;;;;;;;10369345;28;20046;-48
2023/09/15 23:49:27;;;;;;;4.43;4.00;;;;;;;;;;10369357;28;20037;-47
2023/09/15 23:54:28;;;;;;;6.97;4.35;;;;;;;;;;10369937;28;20088;-47
2023/09/15 23:59:28;;;;;;;11.10;4.38;;;;;;;;;;10369112;28;20096;-48
